Weather at Evexia Rehabilitation Center Thessaloniki Heliport

Public forecast

Using degrees Celsius for public forecast. Weather courtesy of forecast.io.

Closest aviation weather report (METAR) to Evexia Rehabilitation Center Thessaloniki Heliport

Closest report is Thessaloniki Macedonia International Airport, 10.4 nm (19.3 km) NNW.

2024/05/27 21:20 (retrieved 15 minutes ago)

LGTS 272120Z 12008KT 9999 FEW030 20/04 Q1015 NOSIG

Closest aviation forecast (TAF) to Evexia Rehabilitation Center Thessaloniki Heliport

Closest forecast is Thessaloniki Macedonia International Airport, 10.4 nm (19.3 km) NNW.

2024/05/27 18:16 (retrieved 3 hours ago)

TAF LGTS 271700Z 2718/2818 15012KT 9999 FEW030 BECMG 2720/2722 VRB03KT BECMG 2812/2814 17014KT